Time;durP1;ratioP1;P1;durP2;ratioP2;P2;SDS_P1;SDS_P2;PMS_P1;PMS_P2;Temp;Humidity;BMP_temperature;BMP_pressure;BME280_temperature;BME280_humidity;BME280_pressure;Samples;Min_cycle;Max_cycle;Signal;HPM_P1;HPM_P2
2023/04/07 00:02:27;;;;;;;16.63;15.10;;;9.00;99.90;;;;;;10462008;28;20195;-82
2023/04/07 00:07:29;;;;;;;15.80;14.40;;;8.90;99.90;;;;;;10461149;28;20603;-81
2023/04/07 00:12:32;;;;;;;13.40;12.30;;;9.00;99.90;;;;;;10464564;28;20190;-81
2023/04/07 00:17:35;;;;;;;14.40;13.20;;;9.00;99.90;;;;;;10460343;28;20308;-82
2023/04/07 00:22:37;;;;;;;13.77;12.67;;;8.90;99.90;;;;;;10471432;28;20200;-82
2023/04/07 00:27:40;;;;;;;13.30;12.20;;;8.90;99.90;;;;;;10458577;28;20213;-82
2023/04/07 00:32:42;;;;;;;13.70;12.50;;;8.90;99.90;;;;;;10461538;28;20226;-82
2023/04/07 00:37:44;;;;;;;14.07;12.87;;;9.00;99.90;;;;;;10463541;28;20559;-82
2023/04/07 00:42:47;;;;;;;12.63;11.63;;;9.10;99.90;;;;;;10462711;28;20206;-82
2023/04/07 00:47:50;;;;;;;12.47;11.37;;;9.10;99.90;;;;;;10465061;28;20353;-82
2023/04/07 00:52:53;;;;;;;11.60;10.70;;;9.10;99.90;;;;;;10490736;28;20595;-82
2023/04/07 00:57:56;;;;;;;11.77;10.87;;;9.10;99.90;;;;;;10484585;28;20255;-82
2023/04/07 01:03:09;;;;;;;13.00;11.33;;;9.10;99.90;;;;;;10478757;28;20209;-81
2023/04/07 01:08:17;;;;;;;13.23;11.93;;;9.10;99.90;;;;;;10460745;28;20607;-82
2023/04/07 01:13:28;;;;;;;12.73;11.63;;;9.00;99.90;;;;;;10458511;28;20223;-82
2023/04/07 01:18:41;;;;;;;12.57;11.47;;;8.90;99.90;;;;;;10458118;28;20786;-82
2023/04/07 01:23:57;;;;;;;10.63;9.70;;;8.80;99.90;;;;;;10460777;28;20225;-82
2023/04/07 01:29:26;;;;;;;14.17;12.90;;;8.70;99.90;;;;;;10445096;28;20228;-83
2023/04/07 01:34:31;;;;;;;13.93;12.73;;;8.70;99.90;;;;;;10476966;28;20592;-82
2023/04/07 01:39:34;;;;;;;13.60;12.40;;;8.80;99.90;;;;;;10460964;28;20227;-83
2023/04/07 01:44:39;;;;;;;13.17;12.10;;;8.80;99.90;;;;;;10470466;28;20214;-83
2023/04/07 01:49:41;;;;;;;14.93;13.60;;;8.80;99.90;;;;;;10461279;28;20286;-82
2023/04/07 01:54:43;;;;;;;14.63;13.40;;;8.90;99.90;;;;;;10466952;28;20653;-82
2023/04/07 01:59:47;;;;;;;13.60;12.47;;;8.90;99.90;;;;;;10469298;28;20202;-81
2023/04/07 02:04:55;;;;;;;13.70;12.60;;;8.90;99.90;;;;;;10467982;28;20246;-83
2023/04/07 02:10:00;;;;;;;14.17;12.87;;;8.90;99.90;;;;;;10450754;28;20201;-83
2023/04/07 02:15:05;;;;;;;13.97;12.73;;;8.90;99.90;;;;;;10451925;28;20219;-83
2023/04/07 02:20:11;;;;;;;14.40;13.20;;;9.00;99.90;;;;;;10470687;28;20199;-82
2023/04/07 02:25:22;;;;;;;15.00;13.67;;;9.00;99.90;;;;;;10479691;28;20214;-80
2023/04/07 02:30:26;;;;;;;15.23;13.83;;;9.10;99.90;;;;;;10464786;28;20594;-82
2023/04/07 02:35:28;;;;;;;15.87;14.40;;;9.20;99.90;;;;;;10461553;28;20228;-82
2023/04/07 02:40:30;;;;;;;17.80;16.07;;;9.20;99.90;;;;;;10463492;28;20660;-82
2023/04/07 02:45:33;;;;;;;18.00;16.30;;;9.20;99.90;;;;;;10459892;28;20510;-83
2023/04/07 02:50:35;;;;;;;14.93;13.63;;;9.20;99.90;;;;;;10461705;28;20253;-82
2023/04/07 02:55:37;;;;;;;14.83;13.30;;;9.20;99.90;;;;;;10460241;28;20223;-82
2023/04/07 03:00:41;;;;;;;13.93;12.63;;;9.20;99.90;;;;;;10462089;28;20209;-83
2023/04/07 03:05:50;;;;;;;13.50;12.30;;;9.20;99.90;;;;;;10460451;28;20224;-80
2023/04/07 03:10:52;;;;;;;14.87;13.47;;;9.20;99.90;;;;;;10459993;28;20208;-82
2023/04/07 03:16:02;;;;;;;14.40;13.23;;;9.30;99.90;;;;;;10456972;28;20509;-82
2023/04/07 03:21:09;;;;;;;13.87;12.77;;;9.30;99.90;;;;;;10457029;28;20620;-82
2023/04/07 03:26:12;;;;;;;13.43;12.33;;;9.30;99.90;;;;;;10457919;28;20211;-82
2023/04/07 03:31:15;;;;;;;16.37;13.70;;;9.30;99.90;;;;;;10460477;28;20198;-82
2023/04/07 03:36:18;;;;;;;12.97;11.77;;;9.20;99.90;;;;;;10466681;28;20238;-83
2023/04/07 03:41:21;;;;;;;13.23;12.10;;;9.20;99.90;;;;;;10481818;28;20288;-82
2023/04/07 03:46:25;;;;;;;13.97;12.70;;;9.10;99.90;;;;;;10464126;28;20203;-83
2023/04/07 03:51:28;;;;;;;14.03;12.83;;;9.00;99.90;;;;;;10463871;28;20715;-82
2023/04/07 03:56:33;;;;;;;13.37;12.10;;;8.90;99.90;;;;;;10464050;28;20255;-82
2023/04/07 04:01:36;;;;;;;13.83;12.60;;;8.90;99.90;;;;;;10485931;28;20205;-83
2023/04/07 04:06:49;;;;;;;13.97;12.60;;;8.90;99.90;;;;;;10483330;28;20618;-82
2023/04/07 04:11:58;;;;;;;12.23;11.13;;;8.90;99.90;;;;;;10438925;28;20287;-82
2023/04/07 04:17:01;;;;;;;13.17;12.03;;;9.00;99.90;;;;;;10454890;28;20300;-82
2023/04/07 04:22:12;;;;;;;13.27;12.07;;;9.10;99.90;;;;;;10455648;28;20649;-82
2023/04/07 04:27:23;;;;;;;15.10;13.70;;;9.10;99.90;;;;;;10456875;28;20252;-82
2023/04/07 04:32:33;;;;;;;14.47;13.03;;;9.20;99.90;;;;;;10460632;28;20627;-82
2023/04/07 04:37:36;;;;;;;13.47;12.30;;;9.20;99.90;;;;;;10442255;28;20280;-83
2023/04/07 04:42:43;;;;;;;14.13;12.73;;;9.20;99.90;;;;;;10458688;28;20221;-82
2023/04/07 04:47:48;;;;;;;13.13;12.13;;;9.30;99.90;;;;;;10457024;28;20222;-82
2023/04/07 04:52:52;;;;;;;12.73;11.53;;;9.30;99.90;;;;;;10457101;28;20286;-83
2023/04/07 04:57:57;;;;;;;13.80;12.50;;;9.30;99.90;;;;;;10459032;28;20343;-81
2023/04/07 05:03:11;;;;;;;14.13;12.70;;;9.20;99.90;;;;;;10456648;28;20598;-82
2023/04/07 05:08:18;;;;;;;13.40;12.20;;;9.20;99.90;;;;;;10456853;28;20186;-82
2023/04/07 05:13:20;;;;;;;13.20;12.10;;;9.20;99.90;;;;;;10459288;28;20247;-82
2023/04/07 05:18:24;;;;;;;14.40;12.40;;;9.10;99.90;;;;;;10464064;28;20218;-82
2023/04/07 05:23:27;;;;;;;13.67;12.47;;;9.10;99.90;;;;;;10451102;28;20225;-82
2023/04/07 05:28:29;;;;;;;13.77;12.50;;;9.00;99.90;;;;;;10468467;28;20190;-83
2023/04/07 05:33:37;;;;;;;14.60;13.20;;;8.90;99.90;;;;;;10471179;28;20227;-83
2023/04/07 05:38:40;;;;;;;15.20;13.80;;;8.80;99.90;;;;;;10483023;28;20217;-82
2023/04/07 05:43:47;;;;;;;14.83;13.30;;;8.80;99.90;;;;;;10468211;28;20333;-83
2023/04/07 05:48:53;;;;;;;15.37;13.73;;;8.80;99.90;;;;;;10465291;28;20289;-83
2023/04/07 05:53:56;;;;;;;13.20;11.90;;;8.80;99.90;;;;;;10465630;28;20268;-82
2023/04/07 05:59:00;;;;;;;14.80;13.33;;;8.90;99.90;;;;;;10463574;28;20228;-82
2023/04/07 06:04:04;;;;;;;15.23;13.77;;;9.00;99.90;;;;;;10464365;28;20214;-83
2023/04/07 06:09:06;;;;;;;15.70;14.17;;;9.10;99.90;;;;;;10463756;28;20199;-82
2023/04/07 06:14:09;;;;;;;15.03;13.63;;;9.10;99.90;;;;;;10464878;28;20226;-83
2023/04/07 06:19:12;;;;;;;15.63;14.10;;;9.20;99.90;;;;;;10448987;28;20226;-83
2023/04/07 06:24:14;;;;;;;14.40;13.10;;;9.30;99.90;;;;;;10465310;28;20222;-83
2023/04/07 06:29:16;;;;;;;14.23;12.87;;;9.30;99.90;;;;;;10464121;28;20189;-81
2023/04/07 06:34:20;;;;;;;13.50;12.20;;;9.40;99.90;;;;;;10447920;28;20214;-81
2023/04/07 06:39:22;;;;;;;13.77;12.67;;;9.50;99.90;;;;;;10463931;28;20219;-82
2023/04/07 06:44:24;;;;;;;15.17;13.83;;;9.70;99.90;;;;;;10467529;28;20245;-81
2023/04/07 06:49:27;;;;;;;13.80;12.50;;;9.80;99.90;;;;;;10448660;28;20201;-82
2023/04/07 06:54:29;;;;;;;14.53;13.03;;;9.80;99.90;;;;;;10465324;28;20214;-82
2023/04/07 06:59:31;;;;;;;15.53;13.60;;;9.80;99.90;;;;;;10461667;28;20233;-82
2023/04/07 07:04:35;;;;;;;17.60;15.30;;;9.80;99.90;;;;;;10477859;28;20237;-81
2023/04/07 07:09:37;;;;;;;15.27;13.87;;;9.90;99.90;;;;;;10473635;28;20196;-82
2023/04/07 07:14:40;;;;;;;24.73;18.17;;;9.90;99.90;;;;;;10477152;28;20222;-82
2023/04/07 07:19:43;;;;;;;14.03;12.57;;;10.10;99.90;;;;;;10464429;28;20225;-81
2023/04/07 07:24:45;;;;;;;13.77;12.67;;;10.20;99.60;;;;;;10459365;28;20268;-81
2023/04/07 07:29:47;;;;;;;12.13;11.20;;;10.30;99.90;;;;;;10461014;28;20225;-80
2023/04/07 07:34:50;;;;;;;12.63;11.53;;;10.60;99.90;;;;;;10462096;28;20217;-82
2023/04/07 07:39:52;;;;;;;12.03;11.03;;;10.80;99.90;;;;;;10457538;28;20718;-81
2023/04/07 07:44:54;;;;;;;12.10;11.10;;;11.00;99.90;;;;;;10459927;28;20283;-82
2023/04/07 07:49:58;;;;;;;11.13;10.13;;;11.30;99.60;;;;;;10460679;28;20235;-81
2023/04/07 07:55:00;;;;;;;12.67;11.63;;;11.40;98.30;;;;;;10470428;28;20574;-82
2023/04/07 08:00:03;;;;;;;12.53;11.40;;;11.50;99.00;;;;;;10440743;28;20229;-81
2023/04/07 08:05:16;;;;;;;11.20;10.30;;;11.40;99.60;;;;;;10457002;28;20725;-81
2023/04/07 08:10:19;;;;;;;11.70;10.70;;;11.30;98.70;;;;;;10438937;28;20214;-83
2023/04/07 08:15:21;;;;;;;12.73;11.43;;;11.40;98.70;;;;;;10458099;28;20633;-82
2023/04/07 08:20:25;;;;;;;11.67;10.67;;;11.50;98.10;;;;;;10440059;28;20226;-82
2023/04/07 08:25:28;;;;;;;9.50;8.70;;;11.70;97.70;;;;;;10460410;28;20210;-81
2023/04/07 08:30:30;;;;;;;10.17;9.27;;;12.00;96.70;;;;;;10458118;28;20200;-81
2023/04/07 08:35:35;;;;;;;8.90;8.20;;;12.30;96.50;;;;;;10454419;28;20236;-82
2023/04/07 08:40:37;;;;;;;9.93;8.93;;;12.50;97.00;;;;;;10443329;28;20620;-83
2023/04/07 08:45:41;;;;;;;10.40;9.50;;;12.70;97.40;;;;;;10465294;28;20221;-83
2023/04/07 08:50:46;;;;;;;9.97;9.03;;;12.90;97.00;;;;;;10456096;28;20247;-82
2023/04/07 08:55:48;;;;;;;8.40;7.70;;;13.10;96.20;;;;;;10478760;28;20213;-82
2023/04/07 09:00:50;;;;;;;9.07;8.17;;;13.30;96.30;;;;;;10475994;28;20220;-83
2023/04/07 09:05:55;;;;;;;8.87;8.13;;;13.50;96.00;;;;;;10479147;28;20226;-82
2023/04/07 09:10:57;;;;;;;15.97;11.63;;;13.60;95.80;;;;;;10465185;28;20194;-81
2023/04/07 09:16:01;;;;;;;8.67;7.93;;;13.80;94.60;;;;;;10466065;28;20218;-82
2023/04/07 09:21:06;;;;;;;9.13;8.13;;;13.90;94.60;;;;;;10467414;28;20220;-82
2023/04/07 09:26:23;;;;;;;9.30;8.60;;;14.10;94.50;;;;;;10460756;28;20321;-82
2023/04/07 09:31:44;;;;;;;7.93;7.33;;;14.20;93.90;;;;;;10463102;28;20190;-81
2023/04/07 09:36:48;;;;;;;12.17;10.60;;;14.30;94.30;;;;;;10462251;28;20295;-83
2023/04/07 09:41:50;;;;;;;7.87;6.80;;;14.40;95.30;;;;;;10468076;28;20198;-83
2023/04/07 09:46:53;;;;;;;7.07;6.50;;;14.50;92.70;;;;;;10486217;28;20266;-83
2023/04/07 09:51:58;;;;;;;7.33;6.73;;;14.60;92.40;;;;;;10468388;28;20209;-83
2023/04/07 09:57:01;;;;;;;7.90;7.17;;;14.80;92.10;;;;;;10444424;28;20668;-83
2023/04/07 10:02:04;;;;;;;6.80;6.10;;;14.90;93.10;;;;;;10466501;28;20190;-83
2023/04/07 10:07:08;;;;;;;7.93;7.10;;;14.90;92.90;;;;;;10469216;28;20777;-83
2023/04/07 10:12:10;;;;;;;9.70;8.80;;;15.00;93.70;;;;;;10470812;28;20193;-83
2023/04/07 10:17:18;;;;;;;9.10;8.10;;;15.10;91.20;;;;;;10470521;28;20720;-83
2023/04/07 10:22:22;;;;;;;9.00;8.30;;;15.00;92.00;;;;;;10477654;28;20190;-82
2023/04/07 10:27:30;;;;;;;8.50;7.83;;;15.00;91.70;;;;;;10470054;28;20644;-82
2023/04/07 10:32:33;;;;;;;8.83;8.20;;;15.00;92.20;;;;;;10445629;28;20203;-83
2023/04/07 10:37:36;;;;;;;7.97;7.37;;;14.90;92.30;;;;;;10446082;28;20292;-82
2023/04/07 10:42:45;;;;;;;8.20;7.50;;;14.80;90.80;;;;;;10465032;28;20284;-82
2023/04/07 10:48:12;;;;;;;8.23;7.43;;;14.60;92.40;;;;;;10466324;28;20245;-83
2023/04/07 10:53:16;;;;;;;8.23;7.63;;;14.50;92.80;;;;;;10466478;28;20200;-81
2023/04/07 10:58:20;;;;;;;8.23;7.13;;;14.60;91.10;;;;;;10464321;28;20244;-82
2023/04/07 11:03:23;;;;;;;8.00;7.40;;;14.50;90.60;;;;;;10465204;28;20225;-82
2023/04/07 11:08:34;;;;;;;8.00;7.30;;;14.40;90.80;;;;;;10461956;28;20225;-82
2023/04/07 11:13:41;;;;;;;8.03;7.23;;;14.40;92.60;;;;;;10461406;28;20214;-82
2023/04/07 11:18:44;;;;;;;7.67;6.97;;;14.40;91.60;;;;;;10463183;28;20214;-83
2023/04/07 11:23:48;;;;;;;6.73;6.10;;;14.50;91.50;;;;;;10461927;28;20210;-83
2023/04/07 11:28:52;;;;;;;11.63;7.23;;;14.60;92.80;;;;;;10461725;28;20561;-82
2023/04/07 11:33:55;;;;;;;6.87;6.27;;;14.70;92.70;;;;;;10465727;28;20214;-82
2023/04/07 11:38:59;;;;;;;6.50;5.87;;;14.70;91.80;;;;;;10447380;28;20210;-83
2023/04/07 11:44:09;;;;;;;6.40;5.90;;;14.50;92.30;;;;;;10465363;28;20214;-83
2023/04/07 11:49:12;;;;;;;9.00;8.17;;;14.40;93.40;;;;;;10466489;28;20198;-83
2023/04/07 11:54:16;;;;;;;9.17;8.27;;;14.30;94.70;;;;;;10465322;28;20241;-82
2023/04/07 11:59:22;;;;;;;8.07;7.47;;;14.20;95.10;;;;;;10477714;28;20228;-83
2023/04/07 12:04:24;;;;;;;9.67;7.57;;;14.10;95.40;;;;;;10467819;28;20317;-81
2023/04/07 12:09:30;;;;;;;9.00;8.10;;;13.90;95.70;;;;;;10481032;28;20616;-82
2023/04/07 12:14:32;;;;;;;12.60;9.37;;;13.80;96.10;;;;;;10467975;28;20218;-83
2023/04/07 12:19:34;;;;;;;10.60;9.70;;;13.50;96.80;;;;;;10468588;28;20214;-82
2023/04/07 12:24:37;;;;;;;9.90;9.10;;;13.30;98.10;;;;;;10487268;28;20214;-83
2023/04/07 12:29:40;;;;;;;10.30;9.30;;;13.10;99.70;;;;;;10464966;28;20529;-81
2023/04/07 12:34:42;;;;;;;10.40;9.60;;;12.70;99.90;;;;;;10445872;28;20245;-82
2023/04/07 12:39:46;;;;;;;10.53;9.70;;;12.50;99.90;;;;;;10462968;28;20614;-82
2023/04/07 12:44:48;;;;;;;9.23;8.50;;;12.30;99.90;;;;;;10462425;28;20278;-82
2023/04/07 12:49:50;;;;;;;8.57;7.77;;;12.20;99.90;;;;;;10462763;28;20889;-81
2023/04/07 12:54:53;;;;;;;8.27;7.67;;;12.00;99.90;;;;;;10463655;28;20214;-82
2023/04/07 12:59:55;;;;;;;9.47;8.67;;;11.90;99.90;;;;;;10465662;28;20241;-82
2023/04/07 13:04:58;;;;;;;8.27;7.57;;;11.80;99.90;;;;;;10465825;28;20313;-81
2023/04/07 13:10:01;;;;;;;6.30;5.90;;;11.90;99.90;;;;;;10463916;28;20259;-83
2023/04/07 13:15:04;;;;;;;6.47;6.07;;;12.00;99.90;;;;;;10466378;28;20223;-83
2023/04/07 13:20:07;;;;;;;5.83;5.33;;;12.10;99.90;;;;;;10449480;28;20221;-83
2023/04/07 13:25:11;;;;;;;4.47;4.17;;;12.10;99.90;;;;;;10470873;28;20221;-82
2023/04/07 13:30:13;;;;;;;5.53;5.20;;;12.20;99.90;;;;;;10465678;28;20297;-83
2023/04/07 13:35:16;;;;;;;5.90;5.50;;;12.30;99.90;;;;;;10469486;28;20237;-81
2023/04/07 13:40:20;;;;;;;6.10;5.60;;;12.40;99.90;;;;;;10464831;28;20277;-81
2023/04/07 13:45:22;;;;;;;6.83;6.27;;;12.50;99.90;;;;;;10463952;28;20221;-81
2023/04/07 13:50:24;;;;;;;6.40;5.90;;;12.50;99.90;;;;;;10462743;28;20222;-82
2023/04/07 13:55:28;;;;;;;5.60;5.17;;;12.50;99.90;;;;;;10446225;28;20239;-80
2023/04/07 14:00:30;;;;;;;4.93;4.60;;;12.60;99.90;;;;;;10448027;28;20312;-83
2023/04/07 14:05:32;;;;;;;5.33;5.00;;;12.60;99.90;;;;;;10447889;28;20539;-82
2023/04/07 14:10:35;;;;;;;5.60;5.13;;;12.60;99.90;;;;;;10468089;28;20197;-82
2023/04/07 14:15:37;;;;;;;7.10;6.60;;;12.60;99.90;;;;;;10476891;28;20312;-81
2023/04/07 14:20:39;;;;;;;4.63;4.23;;;12.70;99.90;;;;;;10461780;28;20709;-81
2023/04/07 14:25:43;;;;;;;5.53;5.13;;;12.80;99.90;;;;;;10443489;28;20222;-81
2023/04/07 14:30:46;;;;;;;6.67;6.07;;;12.90;99.90;;;;;;10462088;28;20668;-83
2023/04/07 14:35:48;;;;;;;7.03;6.43;;;13.00;99.90;;;;;;10444586;28;20248;-83
2023/04/07 14:40:51;;;;;;;6.23;5.60;;;13.20;99.70;;;;;;10462043;28;20296;-82
2023/04/07 14:45:53;;;;;;;5.90;5.40;;;13.20;99.00;;;;;;10444978;28;20241;-83
2023/04/07 14:50:55;;;;;;;6.50;6.00;;;13.20;99.90;;;;;;10464485;28;20194;-83
2023/04/07 14:55:58;;;;;;;7.20;6.50;;;13.10;99.90;;;;;;10464051;28;20306;-83
2023/04/07 15:01:00;;;;;;;6.43;5.93;;;13.20;99.90;;;;;;10461191;28;20252;-83
2023/04/07 15:06:07;;;;;;;7.40;5.87;;;13.20;99.90;;;;;;10474021;28;20290;-82
2023/04/07 15:11:10;;;;;;;7.77;7.07;;;13.30;99.90;;;;;;10465592;28;20201;-83
2023/04/07 15:16:13;;;;;;;6.77;6.17;;;13.20;99.90;;;;;;10460324;28;20246;-82
2023/04/07 15:21:15;;;;;;;6.07;5.57;;;13.30;99.70;;;;;;10462659;28;20275;-83
2023/04/07 15:26:19;;;;;;;5.87;5.47;;;13.20;99.30;;;;;;10463323;28;20214;-82
2023/04/07 15:31:22;;;;;;;6.80;6.20;;;13.10;99.90;;;;;;10463389;28;20622;-83
2023/04/07 15:36:24;;;;;;;6.77;5.97;;;13.10;99.90;;;;;;10447037;28;20213;-83
2023/04/07 15:41:28;;;;;;;7.63;5.47;;;13.00;99.90;;;;;;10464747;28;20594;-82
2023/04/07 15:46:30;;;;;;;6.37;5.87;;;13.00;99.90;;;;;;10464101;28;20241;-83
2023/04/07 15:51:32;;;;;;;6.10;5.60;;;13.00;99.90;;;;;;10464681;28;20187;-84
2023/04/07 15:56:36;;;;;;;6.60;5.90;;;13.00;99.90;;;;;;10464712;28;20648;-82
2023/04/07 16:01:38;;;;;;;7.60;7.00;;;13.10;99.90;;;;;;10461140;28;20218;-82
2023/04/07 16:06:40;;;;;;;7.53;6.83;;;13.10;99.90;;;;;;10462623;28;20226;-82
2023/04/07 16:11:44;;;;;;;7.23;6.60;;;13.20;99.90;;;;;;10465327;28;20240;-84
2023/04/07 16:16:46;;;;;;;7.47;6.87;;;13.20;99.40;;;;;;10473032;28;20245;-83
2023/04/07 16:21:48;;;;;;;6.60;6.10;;;13.10;99.80;;;;;;10479762;28;20245;-84
2023/04/07 16:26:51;;;;;;;7.53;6.20;;;13.10;99.80;;;;;;10463890;28;20223;-83
2023/04/07 16:31:53;;;;;;;7.23;6.53;;;13.00;99.60;;;;;;10465149;28;20581;-82
2023/04/07 16:36:56;;;;;;;8.03;7.33;;;13.00;99.90;;;;;;10465129;28;20283;-84
2023/04/07 16:41:59;;;;;;;8.00;7.30;;;12.90;99.90;;;;;;10477714;28;20224;-84
2023/04/07 16:47:01;;;;;;;11.97;7.70;;;12.90;99.90;;;;;;10461162;28;20213;-83
2023/04/07 16:52:03;;;;;;;10.47;8.13;;;12.80;99.90;;;;;;10442952;28;20186;-84
2023/04/07 16:57:07;;;;;;;11.53;9.30;;;12.50;99.90;;;;;;10461875;28;20288;-84
2023/04/07 17:02:11;;;;;;;18.33;16.47;;;12.10;99.90;;;;;;10462314;28;20693;-83
2023/04/07 17:07:13;;;;;;;14.70;13.30;;;11.80;99.90;;;;;;10461565;28;20713;-83
2023/04/07 17:12:17;;;;;;;15.00;13.80;;;11.50;99.90;;;;;;10466396;28;20220;-83
2023/04/07 17:17:19;;;;;;;14.43;13.23;;;11.30;99.90;;;;;;10452133;28;20243;-83
2023/04/07 17:22:21;;;;;;;14.30;13.30;;;11.00;99.90;;;;;;10454947;28;20222;-83
2023/04/07 17:27:24;;;;;;;24.00;22.10;;;10.90;99.90;;;;;;10472454;28;20216;-83
2023/04/07 17:32:27;;;;;;;17.53;16.13;;;10.70;99.90;;;;;;10475456;28;20326;-83
2023/04/07 17:37:29;;;;;;;24.33;22.20;;;10.70;99.90;;;;;;10485297;28;20252;-81
2023/04/07 17:42:33;;;;;;;21.57;19.67;;;10.60;99.90;;;;;;10471655;28;20245;-82
2023/04/07 17:47:35;;;;;;;20.23;18.63;;;10.60;99.90;;;;;;10465701;28;20214;-82
2023/04/07 17:52:37;;;;;;;20.00;18.30;;;10.60;99.90;;;;;;10467540;28;20251;-82
2023/04/07 17:57:41;;;;;;;16.30;15.00;;;10.60;99.90;;;;;;10467015;28;20237;-83
2023/04/07 18:02:44;;;;;;;15.00;13.90;;;10.70;99.90;;;;;;10471276;28;20557;-83
2023/04/07 18:07:47;;;;;;;13.20;12.40;;;10.70;99.90;;;;;;10470927;28;20217;-82
2023/04/07 18:12:50;;;;;;;13.70;12.80;;;10.80;99.90;;;;;;10451362;28;20676;-83
2023/04/07 18:17:53;;;;;;;14.63;13.43;;;10.80;99.90;;;;;;10480772;28;20240;-84
2023/04/07 18:22:56;;;;;;;12.50;11.70;;;10.80;99.90;;;;;;10470678;28;20289;-83
2023/04/07 18:28:00;;;;;;;10.60;9.90;;;10.80;99.90;;;;;;10476345;28;20680;-83
2023/04/07 18:33:02;;;;;;;12.20;11.43;;;10.80;99.90;;;;;;10460469;28;20276;-81
2023/04/07 18:38:06;;;;;;;10.03;9.43;;;10.80;99.90;;;;;;10460373;28;20272;-82
2023/04/07 18:43:12;;;;;;;10.33;9.70;;;10.70;99.90;;;;;;10444602;28;20680;-83
2023/04/07 18:48:14;;;;;;;9.57;8.97;;;10.70;99.90;;;;;;10466676;28;20223;-82
2023/04/07 18:53:16;;;;;;;10.07;9.17;;;10.70;99.90;;;;;;10470050;28;20249;-82
2023/04/07 18:58:20;;;;;;;8.83;8.30;;;10.70;99.90;;;;;;10452465;28;20190;-83
2023/04/07 19:03:22;;;;;;;8.20;7.60;;;10.70;99.90;;;;;;10423050;28;20233;-81
2023/04/07 19:08:24;;;;;;;8.10;7.40;;;10.60;99.90;;;;;;10446376;28;20204;-83
2023/04/07 19:13:29;;;;;;;8.77;8.27;;;10.60;99.90;;;;;;10447400;28;20259;-81
2023/04/07 19:18:31;;;;;;;9.27;8.63;;;10.50;99.90;;;;;;10460271;28;20212;-83
2023/04/07 19:23:33;;;;;;;9.33;8.83;;;10.60;99.90;;;;;;10463325;28;20240;-82
2023/04/07 19:28:37;;;;;;;8.90;8.30;;;10.60;99.90;;;;;;10464341;28;20187;-83
2023/04/07 19:33:39;;;;;;;10.30;9.60;;;10.50;99.90;;;;;;10462314;28;20683;-82
2023/04/07 19:38:41;;;;;;;11.20;10.40;;;10.50;99.90;;;;;;10446280;28;20211;-83
2023/04/07 19:43:45;;;;;;;11.20;10.40;;;10.50;99.90;;;;;;10460777;28;20217;-84
2023/04/07 19:48:47;;;;;;;9.47;8.73;;;10.40;99.90;;;;;;10458796;28;20197;-84
2023/04/07 19:53:49;;;;;;;8.87;8.37;;;10.40;99.90;;;;;;10475727;28;20216;-82
2023/04/07 19:58:53;;;;;;;8.50;8.00;;;10.40;99.90;;;;;;10462496;28;20573;-83
2023/04/07 20:03:55;;;;;;;9.23;8.60;;;10.30;99.90;;;;;;10463920;28;20282;-84
2023/04/07 20:08:57;;;;;;;10.83;9.90;;;10.20;99.90;;;;;;10447119;28;20188;-84
2023/04/07 20:14:03;;;;;;;9.40;8.80;;;10.10;99.90;;;;;;10463639;28;20283;-84
2023/04/07 20:19:06;;;;;;;9.30;8.70;;;10.00;99.90;;;;;;10460974;28;20240;-83
2023/04/07 20:24:12;;;;;;;10.67;9.87;;;10.00;99.90;;;;;;10445102;28;20274;-84
2023/04/07 20:29:21;;;;;;;9.40;8.80;;;9.90;99.90;;;;;;10469349;28;20189;-82
2023/04/07 20:34:23;;;;;;;9.90;9.20;;;10.00;99.90;;;;;;10465542;28;20296;-83
2023/04/07 20:39:26;;;;;;;17.70;16.00;;;10.00;99.90;;;;;;10461747;28;20692;-82
2023/04/07 20:44:30;;;;;;;11.20;10.30;;;10.00;99.90;;;;;;10462500;28;20221;-83
2023/04/07 20:49:32;;;;;;;11.53;10.53;;;10.10;99.90;;;;;;10444050;28;20266;-83
2023/04/07 20:54:35;;;;;;;12.67;11.67;;;10.10;99.90;;;;;;10443555;28;20218;-82
2023/04/07 20:59:38;;;;;;;11.30;10.40;;;10.20;99.90;;;;;;10442688;28;20563;-83
2023/04/07 21:04:41;;;;;;;12.90;11.90;;;10.20;99.90;;;;;;10460948;28;20243;-84
2023/04/07 21:09:43;;;;;;;11.07;10.33;;;10.30;99.90;;;;;;10456452;28;20205;-82
2023/04/07 21:14:47;;;;;;;11.60;10.60;;;10.30;99.90;;;;;;10406173;28;20222;-82
2023/04/07 21:19:49;;;;;;;10.73;9.93;;;10.40;99.90;;;;;;10450061;28;20213;-83
2023/04/07 21:24:52;;;;;;;11.23;10.43;;;10.50;99.90;;;;;;10461854;28;20259;-82
2023/04/07 21:29:56;;;;;;;10.90;10.00;;;10.50;99.90;;;;;;10472582;28;20199;-83
2023/04/07 21:34:58;;;;;;;10.97;10.17;;;10.50;99.90;;;;;;10460453;28;20222;-84
2023/04/07 21:40:00;;;;;;;11.10;10.20;;;10.60;99.90;;;;;;10459502;28;20278;-83
2023/04/07 21:45:05;;;;;;;9.83;9.07;;;10.60;99.90;;;;;;10463519;28;20351;-83
2023/04/07 21:50:07;;;;;;;9.37;8.67;;;10.60;99.90;;;;;;10447773;28;20682;-84
2023/04/07 21:55:10;;;;;;;9.80;9.03;;;10.60;99.90;;;;;;10477364;28;20276;-83
2023/04/07 22:00:15;;;;;;;10.37;9.57;;;10.60;99.90;;;;;;10465019;28;20221;-82
2023/04/07 22:05:17;;;;;;;9.43;8.70;;;10.60;99.90;;;;;;10467268;28;20407;-82
2023/04/07 22:10:19;;;;;;;9.57;8.77;;;10.60;99.90;;;;;;10464282;28;20198;-82
2023/04/07 22:15:23;;;;;;;9.67;8.87;;;10.50;99.90;;;;;;10466226;28;20292;-82
2023/04/07 22:20:25;;;;;;;9.60;8.90;;;10.50;99.90;;;;;;10467229;28;20221;-81
2023/04/07 22:25:28;;;;;;;11.17;10.30;;;10.50;99.90;;;;;;10464085;28;20253;-81
2023/04/07 22:30:31;;;;;;;10.40;9.60;;;10.50;99.90;;;;;;10466003;28;20276;-81
2023/04/07 22:35:33;;;;;;;10.73;9.83;;;10.40;99.90;;;;;;10463632;28;20220;-81
2023/04/07 22:40:35;;;;;;;10.50;9.70;;;10.40;99.90;;;;;;10462275;28;20252;-80
2023/04/07 22:45:39;;;;;;;11.10;10.30;;;10.50;99.90;;;;;;10465369;28;20221;-82
2023/04/07 22:50:41;;;;;;;12.27;11.23;;;10.50;99.90;;;;;;10465490;28;20201;-83
2023/04/07 22:55:43;;;;;;;11.27;10.37;;;10.60;99.90;;;;;;10448600;28;20289;-84
2023/04/07 23:00:46;;;;;;;11.77;10.77;;;10.60;99.90;;;;;;10470822;28;20214;-83
2023/04/07 23:05:48;;;;;;;13.20;12.10;;;10.60;99.90;;;;;;10474476;28;20224;-84
2023/04/07 23:10:50;;;;;;;14.87;13.67;;;10.60;99.90;;;;;;10450362;28;20202;-83
2023/04/07 23:15:53;;;;;;;16.27;14.87;;;10.60;99.90;;;;;;10472210;28;20218;-82
2023/04/07 23:20:56;;;;;;;17.57;15.97;;;10.60;99.90;;;;;;10483201;28;20209;-84
2023/04/07 23:25:58;;;;;;;16.10;14.67;;;10.60;99.90;;;;;;10464238;28;20210;-84
2023/04/07 23:31:01;;;;;;;17.90;16.30;;;10.50;99.90;;;;;;10464243;28;20197;-85
2023/04/07 23:36:04;;;;;;;18.00;16.40;;;10.60;99.90;;;;;;10467009;28;20216;-84
2023/04/07 23:41:06;;;;;;;19.40;17.73;;;10.60;99.90;;;;;;10450218;28;20259;-85
2023/04/07 23:46:09;;;;;;;18.07;16.47;;;10.60;99.90;;;;;;10466520;28;20228;-84
2023/04/07 23:51:12;;;;;;;18.17;16.47;;;10.70;99.90;;;;;;10450319;28;20197;-84
2023/04/07 23:56:14;;;;;;;19.87;18.07;;;10.70;99.90;;;;;;10466010;28;20222;-84
